Keystone, Ohio
Current Conditions -  °F | °C
As of 9:30 AM on Tuesday 27 Jan 2015 (Local Time) from KUNI Reporting Station
Clear Clear  
Wind Chill: 18°   Ceiling: Unl
Heat Index: 18°   Visibility: 10mi
Dew Point: 12°   Wind: 3mph
Humidity: 79%   Direction: 340°NNW
Pressure: 30.02"   Gusts: NA
Location:  38.99°N, 82.61°W
Report Text: KUNI 271430Z AUTO 34003KT 10SM CLR M08/M11 A3002 RMK AO2 T10801111
Loading
Personal Weather Stations






























Interactive Weather Map New forecast layout! Learn more

10-Day Weather Forecast

Advertisements
Track Severe Weather on mobile